Time;durP1;ratioP1;P1;durP2;ratioP2;P2;SDS_P1;SDS_P2;PMS_P1;PMS_P2;Temp;Humidity;BMP_temperature;BMP_pressure;BME280_temperature;BME280_humidity;BME280_pressure;Samples;Min_cycle;Max_cycle;Signal;HPM_P1;HPM_P2
2023/11/18 00:00:41;;;;;;;6.65;4.07;;;7.70;99.90;;;;;;6301201;22;20019;-68
2023/11/18 00:03:27;;;;;;;6.65;5.25;;;7.80;99.90;;;;;;6301712;22;20090;-68
2023/11/18 00:06:12;;;;;;;7.55;5.28;;;7.80;99.90;;;;;;6301508;22;20011;-70
2023/11/18 00:08:58;;;;;;;6.60;4.55;;;7.80;99.90;;;;;;6301630;22;20163;-68
2023/11/18 00:11:44;;;;;;;6.07;5.05;;;7.80;99.90;;;;;;6301284;22;20099;-69
2023/11/18 00:14:31;;;;;;;5.97;4.38;;;7.80;99.90;;;;;;6280525;22;20017;-68
2023/11/18 00:17:16;;;;;;;8.15;4.75;;;7.80;99.90;;;;;;6301203;22;20019;-69
2023/11/18 00:20:08;;;;;;;5.38;4.20;;;7.80;99.90;;;;;;6300859;22;20012;-68
2023/11/18 00:22:55;;;;;;;7.82;4.50;;;7.80;99.90;;;;;;6301140;22;20079;-69
2023/11/18 00:25:41;;;;;;;7.13;4.47;;;7.80;99.90;;;;;;6302351;22;20011;-68
2023/11/18 00:28:27;;;;;;;6.18;4.50;;;7.70;99.90;;;;;;6300059;22;20010;-68
2023/11/18 00:31:13;;;;;;;6.15;3.97;;;7.70;99.90;;;;;;6301707;22;20015;-67
2023/11/18 00:33:59;;;;;;;6.78;4.10;;;7.80;99.90;;;;;;6300121;22;20101;-67
2023/11/18 00:36:44;;;;;;;8.10;4.28;;;7.80;99.90;;;;;;6301299;22;20008;-68
2023/11/18 00:39:30;;;;;;;5.03;3.67;;;7.80;99.90;;;;;;6299364;22;20014;-67
2023/11/18 00:42:16;;;;;;;7.22;3.97;;;7.90;99.90;;;;;;6299488;22;20007;-69
2023/11/18 00:45:04;;;;;;;7.18;5.05;;;7.80;99.90;;;;;;6300609;22;20007;-69
2023/11/18 00:47:50;;;;;;;7.10;4.47;;;7.80;99.90;;;;;;6301511;22;20030;-69
2023/11/18 00:50:36;;;;;;;5.03;4.25;;;7.80;99.90;;;;;;6301644;22;20437;-69
2023/11/18 00:53:23;;;;;;;5.88;4.18;;;7.80;99.90;;;;;;6300401;22;20019;-70
2023/11/18 00:56:15;;;;;;;6.57;4.63;;;7.90;99.90;;;;;;6300087;22;20008;-69
2023/11/18 00:59:01;;;;;;;7.15;4.82;;;7.80;99.90;;;;;;6301572;22;20136;-69
2023/11/18 01:01:48;;;;;;;6.93;4.20;;;7.80;99.90;;;;;;6302171;22;20015;-70
2023/11/18 01:04:34;;;;;;;7.25;4.50;;;7.80;99.90;;;;;;6301802;22;20015;-69
2023/11/18 01:07:20;;;;;;;6.60;4.95;;;7.80;99.90;;;;;;6301081;22;20057;-69
2023/11/18 01:10:09;;;;;;;5.93;4.22;;;7.80;99.90;;;;;;6302635;22;20011;-69
2023/11/18 01:12:55;;;;;;;5.80;4.43;;;7.90;99.90;;;;;;6302537;22;20007;-68
2023/11/18 01:15:42;;;;;;;5.85;4.35;;;7.80;99.90;;;;;;6301420;22;20019;-68
2023/11/18 01:18:28;;;;;;;5.25;3.78;;;7.80;99.90;;;;;;6302255;22;20019;-67
2023/11/18 01:21:17;;;;;;;6.03;4.28;;;7.80;99.90;;;;;;6300132;22;20019;-68
2023/11/18 01:24:03;;;;;;;7.30;5.03;;;7.90;99.90;;;;;;6281162;22;20333;-67
2023/11/18 01:26:49;;;;;;;5.00;4.07;;;7.90;99.90;;;;;;6300533;22;20090;-67
2023/11/18 01:29:35;;;;;;;6.93;4.65;;;7.90;99.90;;;;;;6301260;22;20339;-69
2023/11/18 01:32:21;;;;;;;6.85;4.88;;;7.90;99.90;;;;;;6299598;22;20220;-68
2023/11/18 01:35:10;;;;;;;7.53;4.15;;;7.90;99.90;;;;;;6300706;22;20366;-67
2023/11/18 01:37:57;;;;;;;7.25;4.40;;;7.90;99.90;;;;;;6301934;22;20011;-68
2023/11/18 01:40:43;;;;;;;9.35;5.10;;;7.90;99.90;;;;;;6300597;22;20357;-67
2023/11/18 01:43:31;;;;;;;7.43;4.47;;;7.80;99.90;;;;;;6301010;22;20003;-66
2023/11/18 01:46:18;;;;;;;7.35;4.50;;;7.80;99.90;;;;;;6301470;22;20364;-67
2023/11/18 01:49:04;;;;;;;6.20;4.25;;;7.90;99.90;;;;;;6301570;22;20448;-67
2023/11/18 01:51:53;;;;;;;8.60;4.15;;;7.90;99.90;;;;;;6299945;22;20077;-66
2023/11/18 01:54:40;;;;;;;5.15;4.05;;;7.90;99.90;;;;;;6298803;22;20019;-66
2023/11/18 01:57:27;;;;;;;8.45;4.85;;;8.00;99.90;;;;;;6300882;22;20042;-68
2023/11/18 02:00:13;;;;;;;7.15;4.30;;;8.00;99.90;;;;;;6301115;22;20057;-68
2023/11/18 02:02:59;;;;;;;5.53;3.75;;;8.00;99.90;;;;;;6280499;22;20377;-68
2023/11/18 02:05:45;;;;;;;7.22;4.75;;;8.00;99.90;;;;;;6300749;22;20011;-68
2023/11/18 02:08:34;;;;;;;5.63;3.60;;;8.00;99.90;;;;;;6300670;22;20440;-68
2023/11/18 02:11:32;;;;;;;8.52;4.38;;;8.00;99.90;;;;;;6301883;22;20015;-67
2023/11/18 02:14:20;;;;;;;4.38;3.38;;;7.90;99.90;;;;;;6300183;22;20007;-68
2023/11/18 02:17:09;;;;;;;5.53;4.10;;;7.90;99.90;;;;;;6300934;22;20019;-67
2023/11/18 02:19:59;;;;;;;6.05;4.03;;;7.90;99.90;;;;;;6301734;22;20377;-68
2023/11/18 02:22:48;;;;;;;6.63;4.45;;;7.90;99.90;;;;;;6301314;22;20356;-68
2023/11/18 02:25:40;;;;;;;7.47;4.75;;;7.90;99.90;;;;;;6299196;22;20061;-67
2023/11/18 02:28:26;;;;;;;5.72;4.15;;;7.90;99.90;;;;;;6282261;22;20011;-68
2023/11/18 02:31:18;;;;;;;6.63;4.70;;;7.90;99.90;;;;;;6300379;22;20101;-68
2023/11/18 02:34:13;;;;;;;7.50;4.93;;;7.90;99.90;;;;;;6302536;22;20018;-68
2023/11/18 02:37:03;;;;;;;6.83;4.80;;;7.90;99.90;;;;;;6299016;22;20007;-69
2023/11/18 02:39:57;;;;;;;8.48;4.65;;;7.90;99.90;;;;;;6301051;22;20326;-68
2023/11/18 02:42:44;;;;;;;7.18;4.82;;;7.90;99.90;;;;;;6302836;22;20029;-69
2023/11/18 02:45:31;;;;;;;5.30;3.90;;;7.90;99.90;;;;;;6300288;22;20082;-68
2023/11/18 02:48:18;;;;;;;6.80;3.88;;;7.80;99.90;;;;;;6300400;22;20022;-69
2023/11/18 02:51:04;;;;;;;7.82;4.60;;;7.80;99.90;;;;;;6298955;22;20003;-67
2023/11/18 02:53:50;;;;;;;7.47;4.78;;;7.70;99.90;;;;;;6300359;22;20411;-68
2023/11/18 02:56:39;;;;;;;7.13;4.35;;;7.60;99.90;;;;;;6300093;22;20068;-67
2023/11/18 02:59:26;;;;;;;5.75;4.22;;;7.60;99.90;;;;;;6299912;22;20011;-67
2023/11/18 03:02:12;;;;;;;6.30;4.75;;;7.60;99.90;;;;;;6301787;22;20046;-67
2023/11/18 03:04:58;;;;;;;6.80;4.55;;;7.60;99.90;;;;;;6302240;22;20027;-66
2023/11/18 03:07:47;;;;;;;6.20;4.75;;;7.60;99.90;;;;;;6302983;22;20077;-67
2023/11/18 03:10:35;;;;;;;6.22;4.50;;;7.60;99.90;;;;;;6300130;22;20341;-67
2023/11/18 03:13:21;;;;;;;8.10;4.85;;;7.60;99.90;;;;;;6303002;22;20011;-67
2023/11/18 03:16:11;;;;;;;7.25;4.88;;;7.60;99.90;;;;;;6302469;22;20277;-68
2023/11/18 03:18:58;;;;;;;8.75;5.07;;;7.50;99.90;;;;;;6300534;22;20007;-68
2023/11/18 03:21:50;;;;;;;7.38;5.38;;;7.50;99.90;;;;;;6304266;22;20019;-68
2023/11/18 03:24:36;;;;;;;6.60;4.90;;;7.50;99.90;;;;;;6304487;22;20003;-67
2023/11/18 03:27:22;;;;;;;6.75;4.28;;;7.60;99.90;;;;;;6302201;22;20072;-67
2023/11/18 03:30:09;;;;;;;8.30;5.65;;;7.60;99.90;;;;;;6302797;22;20014;-66
2023/11/18 03:32:55;;;;;;;7.80;4.65;;;7.60;99.90;;;;;;6303028;22;20077;-67
2023/11/18 03:35:41;;;;;;;7.85;4.95;;;7.60;99.90;;;;;;6301713;22;20318;-68
2023/11/18 03:38:28;;;;;;;7.50;5.28;;;7.60;99.90;;;;;;6301884;22;20387;-67
2023/11/18 03:41:15;;;;;;;6.40;4.43;;;7.60;99.90;;;;;;6303519;22;20019;-67
2023/11/18 03:44:01;;;;;;;7.40;4.97;;;7.70;99.90;;;;;;6301844;22;20330;-68
2023/11/18 03:46:47;;;;;;;6.47;4.57;;;7.60;99.90;;;;;;6301878;22;20003;-67
2023/11/18 03:49:32;;;;;;;5.65;4.40;;;7.70;99.90;;;;;;6301727;22;20014;-67
2023/11/18 03:52:18;;;;;;;5.82;4.35;;;7.70;99.90;;;;;;6300925;22;19999;-68
2023/11/18 03:55:05;;;;;;;6.38;4.25;;;7.70;99.90;;;;;;6301432;22;20433;-68
2023/11/18 03:57:51;;;;;;;7.00;4.38;;;7.70;99.90;;;;;;6303342;22;20007;-68
2023/11/18 04:00:37;;;;;;;6.38;4.40;;;7.70;99.90;;;;;;6302342;22;20080;-68
2023/11/18 04:03:23;;;;;;;5.65;4.07;;;7.70;99.90;;;;;;6302032;22;20011;-69
2023/11/18 04:06:09;;;;;;;5.63;4.22;;;7.70;99.90;;;;;;6301561;22;20015;-68
2023/11/18 04:08:55;;;;;;;5.70;3.90;;;7.70;99.90;;;;;;6302314;22;20003;-68
2023/11/18 04:11:44;;;;;;;5.38;3.92;;;7.70;99.90;;;;;;6302861;22;20073;-67
2023/11/18 04:14:31;;;;;;;4.90;4.03;;;7.70;99.90;;;;;;6299987;22;20008;-69
2023/11/18 04:17:17;;;;;;;8.00;4.20;;;7.70;99.90;;;;;;6302369;22;20023;-67
2023/11/18 04:20:08;;;;;;;5.85;4.15;;;7.70;99.90;;;;;;6301365;22;20102;-68
2023/11/18 04:22:54;;;;;;;6.32;4.32;;;7.70;99.90;;;;;;6301999;22;20075;-68
2023/11/18 04:25:40;;;;;;;6.60;4.38;;;7.70;99.90;;;;;;6302163;22;20439;-68
2023/11/18 04:28:26;;;;;;;6.95;3.85;;;7.70;99.90;;;;;;6302321;22;20524;-67
2023/11/18 04:31:12;;;;;;;7.22;4.13;;;7.70;99.90;;;;;;6301319;22;20037;-67
2023/11/18 04:33:58;;;;;;;6.03;4.22;;;7.80;99.90;;;;;;6301004;22;20011;-68
2023/11/18 04:36:44;;;;;;;5.18;4.25;;;7.80;99.90;;;;;;6301193;22;20031;-67
2023/11/18 04:39:33;;;;;;;5.35;4.10;;;7.80;99.90;;;;;;6301356;22;20011;-67
2023/11/18 04:42:19;;;;;;;6.40;4.32;;;7.80;99.90;;;;;;6301232;22;20353;-68
2023/11/18 04:45:06;;;;;;;7.50;4.80;;;7.80;99.90;;;;;;6301336;22;20338;-67
2023/11/18 04:47:51;;;;;;;8.13;4.75;;;7.80;99.90;;;;;;6298842;22;20022;-67
2023/11/18 04:50:39;;;;;;;7.63;4.68;;;7.80;99.90;;;;;;6299896;22;20086;-66
2023/11/18 04:53:25;;;;;;;7.32;5.32;;;7.80;99.90;;;;;;6300436;22;20007;-67
2023/11/18 04:56:11;;;;;;;5.93;4.28;;;7.80;99.90;;;;;;6301273;22;20346;-66
2023/11/18 04:58:57;;;;;;;7.38;4.95;;;7.80;99.90;;;;;;6300416;22;20437;-66
2023/11/18 05:01:43;;;;;;;8.35;5.93;;;7.70;99.90;;;;;;6300305;22;20019;-68
2023/11/18 05:04:29;;;;;;;7.38;5.72;;;7.70;99.90;;;;;;6301755;22;20451;-67
2023/11/18 05:07:15;;;;;;;7.25;4.88;;;7.70;99.90;;;;;;6301475;22;20531;-66
2023/11/18 05:10:03;;;;;;;10.02;5.82;;;7.70;99.90;;;;;;6301024;22;20419;-66
2023/11/18 05:12:55;;;;;;;8.55;4.97;;;7.70;99.90;;;;;;6300575;22;20416;-67
2023/11/18 05:15:41;;;;;;;8.02;5.30;;;7.70;99.90;;;;;;6279425;22;20007;-66
2023/11/18 05:18:33;;;;;;;7.03;5.13;;;7.60;99.90;;;;;;6301784;22;20026;-65
2023/11/18 05:21:19;;;;;;;7.07;4.93;;;7.60;99.90;;;;;;6301455;22;20015;-66
2023/11/18 05:24:05;;;;;;;8.05;5.38;;;7.60;99.90;;;;;;6300553;22;20073;-68
2023/11/18 05:26:52;;;;;;;7.35;5.30;;;7.70;99.90;;;;;;6302487;22;20015;-65
2023/11/18 05:29:41;;;;;;;6.75;5.00;;;7.70;99.90;;;;;;6301353;22;20296;-67
2023/11/18 05:32:28;;;;;;;7.22;5.00;;;7.80;99.90;;;;;;6300408;22;20025;-67
2023/11/18 05:35:14;;;;;;;8.07;4.65;;;7.80;99.90;;;;;;6300949;22;20066;-68
2023/11/18 05:38:00;;;;;;;6.90;4.80;;;7.80;99.90;;;;;;6300713;22;20472;-67
2023/11/18 05:40:55;;;;;;;7.28;5.43;;;7.80;99.90;;;;;;6300823;22;20023;-66
2023/11/18 05:43:41;;;;;;;;;;;7.80;99.90;;;;;;6300604;22;20014;-67
2023/11/18 05:46:29;;;;;;;10.60;5.32;;;7.80;99.90;;;;;;6302110;22;19906;-65
2023/11/18 05:49:15;;;;;;;8.13;5.22;;;7.90;99.90;;;;;;6302153;22;20017;-66
2023/11/18 05:52:01;;;;;;;8.02;4.88;;;7.80;99.90;;;;;;6301523;22;20110;-65
2023/11/18 05:54:47;;;;;;;8.75;4.97;;;7.80;99.90;;;;;;6278207;22;20348;-66
2023/11/18 05:57:35;;;;;;;10.02;5.93;;;7.80;99.90;;;;;;6301229;22;20026;-67
2023/11/18 06:00:24;;;;;;;7.15;5.13;;;7.80;99.90;;;;;;6300409;22;20360;-64
2023/11/18 06:03:11;;;;;;;7.85;5.45;;;7.80;99.90;;;;;;6301858;22;20086;-63
2023/11/18 06:05:57;;;;;;;7.72;5.38;;;7.70;99.90;;;;;;6301402;22;20012;-67
2023/11/18 06:08:43;;;;;;;8.27;5.80;;;7.70;99.90;;;;;;6300128;22;20007;-65
2023/11/18 06:11:31;;;;;;;8.52;5.32;;;7.70;99.90;;;;;;6301675;22;20384;-66
2023/11/18 06:14:17;;;;;;;9.68;5.63;;;7.60;99.90;;;;;;6301650;22;20003;-67
2023/11/18 06:17:03;;;;;;;7.32;5.18;;;7.60;99.90;;;;;;6300658;22;20322;-69
2023/11/18 06:19:49;;;;;;;9.15;5.38;;;7.60;99.90;;;;;;6299587;22;20025;-72
2023/11/18 06:22:35;;;;;;;7.88;5.15;;;7.60;99.90;;;;;;6300252;22;20015;-72
2023/11/18 06:25:22;;;;;;;6.97;5.05;;;7.60;99.90;;;;;;6300779;22;20034;-72
2023/11/18 06:28:08;;;;;;;8.45;5.63;;;7.70;99.90;;;;;;6300706;22;20011;-74
2023/11/18 06:30:54;;;;;;;8.05;5.70;;;7.60;99.90;;;;;;6300674;22;20009;-73
2023/11/18 06:33:44;;;;;;;7.78;5.50;;;7.50;99.90;;;;;;6299800;22;20014;-75
2023/11/18 06:36:31;;;;;;;8.07;5.50;;;7.50;99.90;;;;;;6301067;22;20094;-74
2023/11/18 06:39:19;;;;;;;7.45;5.50;;;7.50;99.90;;;;;;6302750;22;20008;-74
2023/11/18 06:42:11;;;;;;;7.60;5.65;;;7.50;99.90;;;;;;6302845;22;20015;-75
2023/11/18 06:44:57;;;;;;;7.20;5.05;;;7.40;99.90;;;;;;6303087;22;20015;-75
2023/11/18 06:47:44;;;;;;;8.05;5.32;;;7.40;99.90;;;;;;6302656;22;20373;-76
2023/11/18 06:50:29;;;;;;;11.27;5.30;;;7.50;99.90;;;;;;6302905;22;20022;-73
2023/11/18 06:53:15;;;;;;;8.70;5.25;;;7.40;99.90;;;;;;6298677;22;20003;-69
2023/11/18 06:56:01;;;;;;;9.13;5.32;;;7.50;99.90;;;;;;6301445;22;20043;-70
2023/11/18 06:58:47;;;;;;;8.32;6.07;;;7.40;99.90;;;;;;6300529;22;20011;-74
2023/11/18 07:01:36;;;;;;;8.52;5.22;;;7.40;99.90;;;;;;6277927;22;20077;-69
2023/11/18 07:04:23;;;;;;;7.70;4.75;;;7.40;99.90;;;;;;6299620;22;20007;-69
2023/11/18 07:07:09;;;;;;;9.00;5.15;;;7.40;99.90;;;;;;6301162;22;20011;-70
2023/11/18 07:09:55;;;;;;;7.32;4.78;;;7.50;99.90;;;;;;6301495;22;20043;-67
2023/11/18 07:12:41;;;;;;;8.07;4.82;;;7.50;99.90;;;;;;6302525;22;20345;-70
2023/11/18 07:15:27;;;;;;;7.88;5.18;;;7.50;99.90;;;;;;6301107;22;20011;-71
2023/11/18 07:18:17;;;;;;;8.23;5.72;;;7.50;99.90;;;;;;6301117;22;20111;-70
2023/11/18 07:21:06;;;;;;;9.50;6.25;;;7.50;99.90;;;;;;6299593;22;20026;-71
2023/11/18 07:23:52;;;;;;;8.95;5.78;;;7.50;99.90;;;;;;6301812;22;20036;-71
2023/11/18 07:26:38;;;;;;;9.48;5.68;;;7.60;99.90;;;;;;6301078;22;20007;-72
2023/11/18 07:29:24;;;;;;;8.40;5.55;;;7.60;99.90;;;;;;6300680;22;20090;-72
2023/11/18 07:32:10;;;;;;;8.75;5.70;;;7.50;99.90;;;;;;6301747;22;20039;-71
2023/11/18 07:34:56;;;;;;;7.80;5.75;;;7.50;99.90;;;;;;6302324;22;20011;-71
2023/11/18 07:37:42;;;;;;;9.65;6.35;;;7.60;99.90;;;;;;6299916;22;20034;-71
2023/11/18 07:40:28;;;;;;;7.70;5.53;;;7.60;99.90;;;;;;6300340;22;20023;-72
2023/11/18 07:43:15;;;;;;;9.70;6.55;;;7.70;99.90;;;;;;6301078;22;20372;-71
2023/11/18 07:46:02;;;;;;;8.68;5.53;;;7.60;99.90;;;;;;6302145;22;20042;-71
2023/11/18 07:48:52;;;;;;;8.95;6.15;;;7.60;99.90;;;;;;6302649;22;20007;-66
2023/11/18 07:51:40;;;;;;;10.38;6.65;;;7.60;99.90;;;;;;6301229;22;20090;-67
2023/11/18 07:54:27;;;;;;;8.68;5.70;;;7.50;99.90;;;;;;6299005;22;20535;-67
2023/11/18 07:57:13;;;;;;;10.57;6.32;;;7.50;99.90;;;;;;6300275;22;20060;-66
2023/11/18 08:00:05;;;;;;;10.05;6.38;;;7.50;99.90;;;;;;6301535;22;20602;-66
2023/11/18 08:02:54;;;;;;;10.50;5.90;;;7.50;99.90;;;;;;6301379;22;20035;-68
2023/11/18 08:05:44;;;;;;;8.98;5.55;;;7.40;99.90;;;;;;6303461;22;20018;-67
2023/11/18 08:08:31;;;;;;;9.57;6.32;;;7.50;99.90;;;;;;6300368;22;20010;-67
2023/11/18 08:11:17;;;;;;;6.45;5.10;;;7.50;99.90;;;;;;6302000;22;20004;-67
2023/11/18 08:14:03;;;;;;;7.93;5.13;;;7.40;99.90;;;;;;6301060;22;20500;-65
2023/11/18 08:16:51;;;;;;;7.70;5.22;;;7.50;99.90;;;;;;6301277;22;20027;-65
2023/11/18 08:19:37;;;;;;;9.30;6.13;;;7.50;99.90;;;;;;6300668;22;20007;-65
2023/11/18 08:22:23;;;;;;;8.32;5.75;;;7.50;99.90;;;;;;6301934;22;20015;-66
2023/11/18 08:25:10;;;;;;;9.30;5.60;;;7.50;99.90;;;;;;6303647;22;20433;-65
2023/11/18 08:27:56;;;;;;;7.35;5.18;;;7.50;99.90;;;;;;6301595;22;20015;-65
2023/11/18 08:30:42;;;;;;;9.38;5.75;;;7.50;99.90;;;;;;6300005;22;20368;-64
2023/11/18 08:33:28;;;;;;;9.43;5.80;;;7.50;99.90;;;;;;6301435;22;20007;-64
2023/11/18 08:36:14;;;;;;;10.60;6.30;;;7.60;99.90;;;;;;6301565;22;20072;-64
2023/11/18 08:39:00;;;;;;;8.32;5.68;;;7.70;99.90;;;;;;6301013;22;20011;-64
2023/11/18 08:41:50;;;;;;;10.25;5.75;;;7.70;99.90;;;;;;6279337;22;20438;-64
2023/11/18 08:44:38;;;;;;;8.00;5.78;;;7.80;99.90;;;;;;6302272;22;20003;-64
2023/11/18 08:47:24;;;;;;;10.48;5.30;;;7.80;99.90;;;;;;6300929;22;20349;-65
2023/11/18 08:50:12;;;;;;;8.65;6.18;;;7.90;99.90;;;;;;6301990;22;20319;-64
2023/11/18 08:52:58;;;;;;;7.80;5.00;;;7.90;99.90;;;;;;6301331;22;20364;-65
2023/11/18 08:58:38;;;;;;;8.05;5.68;;;7.90;99.90;;;;;;6301865;22;20030;-65
2023/11/18 09:01:28;;;;;;;8.63;5.07;;;7.90;99.90;;;;;;6299345;22;20023;-65
2023/11/18 09:04:14;;;;;;;7.35;4.53;;;8.00;99.90;;;;;;6299517;22;20348;-64
2023/11/18 09:07:00;;;;;;;9.57;5.32;;;8.00;99.90;;;;;;6301861;22;20430;-64
2023/11/18 09:09:49;;;;;;;9.82;5.72;;;8.00;99.90;;;;;;6301023;22;20395;-64
2023/11/18 09:12:35;;;;;;;9.93;5.65;;;8.10;99.90;;;;;;6300815;22;20014;-63
2023/11/18 09:15:22;;;;;;;14.98;6.10;;;8.00;99.90;;;;;;6299816;22;20445;-65
2023/11/18 09:18:10;;;;;;;9.65;5.18;;;8.10;99.90;;;;;;6301434;22;20027;-65
2023/11/18 09:20:59;;;;;;;7.05;4.63;;;8.10;99.90;;;;;;6301125;22;20019;-65
2023/11/18 09:23:47;;;;;;;10.43;5.78;;;8.20;99.90;;;;;;6300267;22;20076;-65
2023/11/18 09:26:35;;;;;;;8.45;5.63;;;8.30;99.90;;;;;;6300840;22;20007;-65
2023/11/18 09:29:23;;;;;;;6.65;4.93;;;8.30;99.90;;;;;;6301586;22;20333;-64
2023/11/18 09:32:12;;;;;;;7.68;5.53;;;8.40;99.90;;;;;;6301003;22;20015;-64
2023/11/18 09:34:58;;;;;;;6.45;5.43;;;8.50;99.90;;;;;;6300226;22;20353;-64
2023/11/18 09:37:44;;;;;;;9.23;5.82;;;8.50;99.90;;;;;;6301164;22;20007;-64
2023/11/18 09:40:37;;;;;;;7.25;5.40;;;8.60;99.90;;;;;;6299277;22;20026;-64
2023/11/18 09:43:26;;;;;;;6.80;5.10;;;8.60;99.90;;;;;;6300938;22;20076;-64
2023/11/18 09:46:17;;;;;;;8.57;5.88;;;8.70;99.90;;;;;;6299941;22;20022;-64
2023/11/18 09:49:15;;;;;;;6.97;4.95;;;8.70;99.90;;;;;;6299654;22;20030;-64
2023/11/18 09:52:04;;;;;;;6.47;4.97;;;8.70;99.90;;;;;;6302969;22;20445;-63
2023/11/18 09:55:04;;;;;;;8.00;5.63;;;8.70;99.90;;;;;;6300096;22;20003;-64
2023/11/18 09:57:57;;;;;;;8.13;5.40;;;8.70;99.90;;;;;;6299821;22;20014;-65
2023/11/18 10:00:44;;;;;;;7.50;4.57;;;8.70;99.90;;;;;;6302858;22;20144;-64
2023/11/18 10:03:30;;;;;;;7.90;4.53;;;8.70;99.90;;;;;;6300891;22;20472;-64
2023/11/18 10:06:16;;;;;;;5.47;3.95;;;8.80;99.90;;;;;;6299867;22;20018;-63
2023/11/18 10:09:15;;;;;;;5.78;4.45;;;8.80;99.90;;;;;;6300546;22;20043;-63
2023/11/18 10:12:05;;;;;;;6.60;4.88;;;8.90;99.90;;;;;;6301027;22;20089;-65
2023/11/18 10:14:52;;;;;;;7.05;4.90;;;8.90;99.90;;;;;;6302825;22;20069;-64
2023/11/18 10:18:06;;;;;;;8.25;5.32;;;9.00;99.90;;;;;;6301244;22;20019;-64
2023/11/18 10:20:53;;;;;;;7.13;4.88;;;9.00;99.90;;;;;;6302040;22;20410;-64
2023/11/18 10:23:39;;;;;;;6.15;4.68;;;9.10;99.90;;;;;;6281936;22;20061;-64
2023/11/18 10:26:25;;;;;;;6.82;4.63;;;9.20;99.90;;;;;;6302169;22;20019;-65
2023/11/18 10:29:12;;;;;;;6.97;4.40;;;9.30;99.90;;;;;;6302148;22;20082;-65
2023/11/18 10:32:07;;;;;;;7.20;4.75;;;9.30;99.90;;;;;;6299917;22;20011;-64
2023/11/18 10:34:57;;;;;;;6.82;5.05;;;9.40;99.90;;;;;;6302676;22;20014;-64
2023/11/18 10:37:43;;;;;;;7.50;4.90;;;9.50;99.90;;;;;;6301859;22;20379;-68
2023/11/18 10:40:34;;;;;;;10.13;4.55;;;9.50;99.90;;;;;;6300152;22;20483;-65
2023/11/18 10:43:24;;;;;;;7.60;5.30;;;9.60;99.90;;;;;;6298964;22;20056;-66
2023/11/18 10:46:11;;;;;;;9.18;6.05;;;9.70;99.90;;;;;;6301279;22;20356;-65
2023/11/18 10:48:58;;;;;;;9.95;7.13;;;9.80;99.90;;;;;;6302820;22;20003;-65
2023/11/18 10:51:47;;;;;;;12.38;7.63;;;9.80;99.90;;;;;;6301406;22;20406;-66
2023/11/18 10:54:34;;;;;;;10.30;6.90;;;9.80;99.90;;;;;;6302784;22;20011;-65
2023/11/18 10:57:20;;;;;;;11.15;6.43;;;9.90;99.90;;;;;;6303109;22;20459;-66
2023/11/18 11:00:14;;;;;;;11.15;7.38;;;9.90;99.90;;;;;;6300830;22;20449;-66
2023/11/18 11:03:00;;;;;;;9.32;6.47;;;9.90;99.90;;;;;;6301985;22;20370;-64
2023/11/18 11:05:46;;;;;;;9.77;7.00;;;9.90;99.90;;;;;;6302536;22;20015;-64
2023/11/18 11:08:35;;;;;;;10.02;5.90;;;9.90;99.90;;;;;;6280757;22;20456;-64
2023/11/18 11:11:22;;;;;;;9.05;6.43;;;9.90;99.80;;;;;;6302819;22;20015;-64
2023/11/18 11:14:11;;;;;;;7.70;5.80;;;9.90;99.80;;;;;;6302578;22;20011;-65
2023/11/18 11:17:10;;;;;;;8.93;5.97;;;9.90;99.70;;;;;;6278338;22;20090;-64
2023/11/18 11:20:16;;;;;;;8.75;6.07;;;9.90;99.70;;;;;;6300437;22;20011;-65
2023/11/18 11:23:21;;;;;;;;;;;9.90;99.60;;;;;;6300440;22;20022;-66
2023/11/18 11:26:38;;;;;;;5.63;4.38;;;9.90;99.80;;;;;;6302490;22;19899;-65
2023/11/18 11:29:37;;;;;;;7.72;5.70;;;9.90;99.60;;;;;;6302370;22;20068;-65
2023/11/18 11:32:45;;;;;;;8.15;5.70;;;9.90;99.60;;;;;;6303556;22;20022;-65
2023/11/18 11:35:33;;;;;;;7.50;4.90;;;9.90;99.60;;;;;;6302879;22;20022;-65
2023/11/18 11:38:20;;;;;;;8.35;5.30;;;10.00;99.50;;;;;;6301328;22;20007;-64
2023/11/18 11:41:08;;;;;;;8.07;5.80;;;10.00;99.50;;;;;;6300350;22;20535;-64
2023/11/18 11:43:57;;;;;;;7.90;5.18;;;10.00;99.40;;;;;;6301481;22;20011;-64
2023/11/18 11:46:43;;;;;;;8.45;5.47;;;10.00;99.40;;;;;;6300505;22;20011;-69
2023/11/18 11:49:41;;;;;;;10.32;5.25;;;10.00;99.30;;;;;;6300343;22;20007;-69
2023/11/18 11:52:31;;;;;;;8.15;5.90;;;10.00;99.30;;;;;;6303725;22;20082;-68
2023/11/18 11:55:44;;;;;;;11.90;5.95;;;10.00;99.20;;;;;;6303618;22;20086;-69
2023/11/18 11:58:36;;;;;;;8.57;5.38;;;10.00;99.20;;;;;;6300160;22;20277;-69
2023/11/18 12:01:34;;;;;;;7.68;5.57;;;10.00;99.20;;;;;;6303024;22;20022;-69
2023/11/18 12:04:28;;;;;;;14.00;6.43;;;9.90;99.10;;;;;;6281678;22;20008;-69
2023/11/18 12:07:15;;;;;;;9.75;6.28;;;9.90;99.10;;;;;;6300987;22;20079;-69
2023/11/18 12:10:06;;;;;;;12.82;8.00;;;9.90;99.10;;;;;;6301538;22;20336;-69
2023/11/18 12:13:07;;;;;;;14.35;7.57;;;9.80;99.10;;;;;;6300733;22;20007;-71
2023/11/18 12:15:58;;;;;;;15.00;8.60;;;9.70;99.00;;;;;;6301647;22;20389;-69
2023/11/18 12:19:31;;;;;;;11.90;7.75;;;9.60;99.00;;;;;;6301357;22;20200;-69
2023/11/18 12:22:18;;;;;;;13.43;9.10;;;9.60;99.10;;;;;;6205653;23;20078;-69
2023/11/18 12:25:07;;;;;;;15.82;9.55;;;9.60;99.10;;;;;;6205103;23;20092;-68
2023/11/18 12:27:58;;;;;;;14.48;8.27;;;9.60;99.10;;;;;;6205721;23;20013;-69
2023/11/18 12:30:57;;;;;;;11.93;7.65;;;9.60;99.00;;;;;;6206122;23;20091;-69
2023/11/18 12:33:55;;;;;;;14.70;7.68;;;9.50;98.90;;;;;;6208127;23;20063;-65
2023/11/18 12:37:05;;;;;;;16.38;7.63;;;9.50;98.80;;;;;;6206047;23;20009;-65
2023/11/18 12:39:58;;;;;;;9.05;6.07;;;9.50;98.80;;;;;;6170497;23;20473;-65
2023/11/18 12:43:04;;;;;;;9.88;6.07;;;9.40;98.70;;;;;;6206234;23;20012;-65
2023/11/18 12:46:37;;;;;;;9.43;6.13;;;9.40;98.70;;;;;;6205609;23;20058;-64
2023/11/18 12:49:24;;;;;;;10.35;5.93;;;9.40;98.60;;;;;;6205704;23;20010;-64
2023/11/18 12:52:14;;;;;;;8.90;6.05;;;9.30;98.50;;;;;;6205803;23;20042;-65
2023/11/18 12:55:02;;;;;;;12.73;6.72;;;9.30;98.40;;;;;;6205720;23;20051;-65
2023/11/18 12:57:49;;;;;;;10.13;6.03;;;9.30;98.40;;;;;;6213378;22;20088;-64
2023/11/18 13:00:35;;;;;;;9.55;5.78;;;9.30;98.40;;;;;;6299933;22;20463;-65
2023/11/18 13:03:21;;;;;;;9.95;5.93;;;9.30;98.40;;;;;;6301814;22;20022;-64
2023/11/18 13:06:09;;;;;;;9.40;6.55;;;9.30;98.40;;;;;;6299558;22;20018;-65
2023/11/18 13:08:55;;;;;;;9.82;6.65;;;9.30;98.40;;;;;;6301090;22;20008;-65
2023/11/18 13:11:42;;;;;;;11.30;7.03;;;9.30;98.40;;;;;;6300050;22;20390;-64
2023/11/18 13:14:35;;;;;;;8.90;5.82;;;9.30;98.40;;;;;;6300715;22;20153;-64
2023/11/18 13:17:21;;;;;;;7.25;4.72;;;9.30;98.40;;;;;;6300799;22;20027;-64
2023/11/18 13:20:14;;;;;;;8.18;5.65;;;9.30;98.40;;;;;;6278923;22;20015;-63
2023/11/18 13:23:00;;;;;;;9.98;5.55;;;9.40;98.40;;;;;;6301226;22;20363;-63
2023/11/18 13:25:47;;;;;;;10.05;6.22;;;9.40;98.40;;;;;;6300485;22;20364;-64
2023/11/18 13:28:33;;;;;;;11.45;6.00;;;9.40;98.30;;;;;;6300967;22;20452;-64
2023/11/18 13:31:21;;;;;;;8.27;5.57;;;9.40;98.30;;;;;;6278996;22;20349;-64
2023/11/18 13:34:07;;;;;;;9.65;6.78;;;9.50;98.30;;;;;;6301101;22;20046;-64
2023/11/18 13:36:53;;;;;;;9.30;6.70;;;9.50;98.30;;;;;;6299507;22;20022;-65
2023/11/18 13:39:39;;;;;;;10.60;7.15;;;9.60;98.30;;;;;;6299857;22;20011;-64
2023/11/18 13:42:28;;;;;;;9.63;6.18;;;9.70;98.20;;;;;;6300717;22;20036;-64
2023/11/18 13:45:19;;;;;;;7.80;5.13;;;9.70;98.20;;;;;;6299151;22;20003;-63
2023/11/18 13:48:06;;;;;;;8.38;5.00;;;9.70;98.20;;;;;;6301195;22;20017;-64
2023/11/18 13:50:53;;;;;;;7.55;5.13;;;9.70;98.00;;;;;;6300573;22;20279;-63
2023/11/18 13:53:46;;;;;;;9.57;4.85;;;9.70;97.90;;;;;;6299827;22;20000;-63
2023/11/18 13:56:32;;;;;;;7.22;4.72;;;9.60;97.80;;;;;;6297413;22;20073;-66
2023/11/18 13:59:19;;;;;;;8.35;5.38;;;9.60;97.70;;;;;;6299351;22;20011;-62
2023/11/18 14:02:05;;;;;;;11.10;6.35;;;9.50;97.60;;;;;;6300679;22;20080;-63
2023/11/18 14:04:55;;;;;;;11.05;5.13;;;9.40;97.60;;;;;;6301599;22;20014;-63
2023/11/18 14:07:41;;;;;;;13.23;5.60;;;9.30;97.60;;;;;;6298289;22;20356;-63
2023/11/18 14:10:27;;;;;;;11.55;6.30;;;9.20;97.50;;;;;;6300099;22;20340;-63
2023/11/18 14:13:16;;;;;;;11.45;5.95;;;9.20;97.60;;;;;;6300514;22;20008;-63
2023/11/18 14:16:03;;;;;;;12.70;6.32;;;9.00;97.60;;;;;;6300796;22;20012;-63
2023/11/18 14:18:49;;;;;;;12.23;5.90;;;8.90;97.60;;;;;;6298339;22;20417;-63
2023/11/18 14:21:35;;;;;;;18.40;7.38;;;8.90;97.70;;;;;;6296684;22;20392;-63
2023/11/18 14:24:28;;;;;;;17.92;8.10;;;8.80;97.70;;;;;;6301293;22;20365;-63
2023/11/18 14:27:13;;;;;;;13.02;6.90;;;8.70;97.70;;;;;;6298997;22;20011;-63
2023/11/18 14:30:00;;;;;;;11.30;6.43;;;8.70;97.80;;;;;;6299829;22;20460;-65
2023/11/18 14:32:49;;;;;;;14.35;7.15;;;8.60;97.80;;;;;;6298510;22;20053;-65
2023/11/18 14:35:35;;;;;;;14.70;7.72;;;8.50;97.90;;;;;;6300677;22;20012;-63
2023/11/18 14:38:21;;;;;;;14.60;8.00;;;8.50;98.00;;;;;;6300474;22;20364;-65
2023/11/18 14:41:07;;;;;;;17.95;7.05;;;8.40;98.00;;;;;;6279248;22;20102;-64
2023/11/18 14:43:53;;;;;;;20.55;8.82;;;8.40;98.00;;;;;;6298154;22;20015;-63
2023/11/18 14:46:40;;;;;;;18.45;7.78;;;8.30;98.10;;;;;;6299404;22;20011;-65
2023/11/18 14:49:26;;;;;;;26.23;8.32;;;8.30;98.20;;;;;;6300734;22;20182;-64